sensor_id;sensor_type;location;lat;lon;timestamp;P1;durP1;ratioP1;P2;durP2;ratioP2
19221;SDS011;9745;50.828;4.378;2023-08-24T00:00:39;7.27;;;4.07;;
19221;SDS011;9745;50.828;4.378;2023-08-24T00:03:06;11.33;;;4.47;;
19221;SDS011;9745;50.828;4.378;2023-08-24T00:05:32;8.20;;;4.27;;
19221;SDS011;9745;50.828;4.378;2023-08-24T00:08:00;8.00;;;4.60;;
19221;SDS011;9745;50.828;4.378;2023-08-24T00:10:26;9.00;;;4.53;;
19221;SDS011;9745;50.828;4.378;2023-08-24T00:12:52;10.37;;;3.90;;
19221;SDS011;9745;50.828;4.378;2023-08-24T00:15:18;7.47;;;3.83;;
19221;SDS011;9745;50.828;4.378;2023-08-24T00:17:44;6.60;;;3.83;;
19221;SDS011;9745;50.828;4.378;2023-08-24T00:20:10;8.73;;;4.43;;
19221;SDS011;9745;50.828;4.378;2023-08-24T00:22:39;12.90;;;4.67;;
19221;SDS011;9745;50.828;4.378;2023-08-24T00:25:06;8.90;;;4.63;;
19221;SDS011;9745;50.828;4.378;2023-08-24T00:27:32;7.77;;;4.00;;
19221;SDS011;9745;50.828;4.378;2023-08-24T00:29:59;9.07;;;4.10;;
19221;SDS011;9745;50.828;4.378;2023-08-24T00:32:25;12.93;;;4.50;;
19221;SDS011;9745;50.828;4.378;2023-08-24T00:34:52;8.67;;;4.37;;
19221;SDS011;9745;50.828;4.378;2023-08-24T00:37:18;5.80;;;3.73;;
19221;SDS011;9745;50.828;4.378;2023-08-24T00:39:45;6.30;;;4.00;;
19221;SDS011;9745;50.828;4.378;2023-08-24T00:42:11;7.77;;;4.40;;
19221;SDS011;9745;50.828;4.378;2023-08-24T00:44:40;7.07;;;4.20;;
19221;SDS011;9745;50.828;4.378;2023-08-24T00:47:06;7.40;;;3.97;;
19221;SDS011;9745;50.828;4.378;2023-08-24T00:49:32;10.80;;;4.23;;
19221;SDS011;9745;50.828;4.378;2023-08-24T00:51:58;6.67;;;3.97;;
19221;SDS011;9745;50.828;4.378;2023-08-24T00:54:24;10.07;;;5.33;;
19221;SDS011;9745;50.828;4.378;2023-08-24T00:56:50;9.27;;;4.13;;
19221;SDS011;9745;50.828;4.378;2023-08-24T00:59:16;9.27;;;4.33;;
19221;SDS011;9745;50.828;4.378;2023-08-24T01:01:43;6.53;;;3.77;;
19221;SDS011;9745;50.828;4.378;2023-08-24T01:04:10;4.73;;;3.57;;
19221;SDS011;9745;50.828;4.378;2023-08-24T01:06:37;5.67;;;3.90;;
19221;SDS011;9745;50.828;4.378;2023-08-24T01:09:03;8.03;;;4.13;;
19221;SDS011;9745;50.828;4.378;2023-08-24T01:11:39;7.30;;;4.00;;
19221;SDS011;9745;50.828;4.378;2023-08-24T01:16:39;9.53;;;3.70;;
19221;SDS011;9745;50.828;4.378;2023-08-24T01:19:10;7.17;;;3.90;;
19221;SDS011;9745;50.828;4.378;2023-08-24T01:21:46;5.37;;;4.03;;
19221;SDS011;9745;50.828;4.378;2023-08-24T01:24:13;8.00;;;4.33;;
19221;SDS011;9745;50.828;4.378;2023-08-24T01:26:40;8.87;;;3.93;;
19221;SDS011;9745;50.828;4.378;2023-08-24T01:29:07;6.50;;;3.63;;
19221;SDS011;9745;50.828;4.378;2023-08-24T01:31:33;10.83;;;4.20;;
19221;SDS011;9745;50.828;4.378;2023-08-24T01:33:59;9.50;;;4.73;;
19221;SDS011;9745;50.828;4.378;2023-08-24T01:36:26;5.57;;;3.97;;
19221;SDS011;9745;50.828;4.378;2023-08-24T01:39:02;8.17;;;3.97;;
19221;SDS011;9745;50.828;4.378;2023-08-24T01:41:35;6.03;;;4.63;;
19221;SDS011;9745;50.828;4.378;2023-08-24T01:44:07;9.60;;;4.40;;
19221;SDS011;9745;50.828;4.378;2023-08-24T01:46:35;7.20;;;4.10;;
19221;SDS011;9745;50.828;4.378;2023-08-24T01:49:02;7.00;;;4.20;;
19221;SDS011;9745;50.828;4.378;2023-08-24T01:51:29;7.43;;;4.10;;
19221;SDS011;9745;50.828;4.378;2023-08-24T01:53:56;7.20;;;4.50;;
19221;SDS011;9745;50.828;4.378;2023-08-24T01:56:23;7.30;;;4.00;;
19221;SDS011;9745;50.828;4.378;2023-08-24T01:58:49;8.30;;;4.67;;
19221;SDS011;9745;50.828;4.378;2023-08-24T02:01:15;9.10;;;4.70;;
19221;SDS011;9745;50.828;4.378;2023-08-24T02:03:41;15.70;;;4.60;;
19221;SDS011;9745;50.828;4.378;2023-08-24T02:06:07;11.50;;;5.10;;
19221;SDS011;9745;50.828;4.378;2023-08-24T02:08:34;8.90;;;5.30;;
19221;SDS011;9745;50.828;4.378;2023-08-24T02:11:00;10.10;;;5.13;;
19221;SDS011;9745;50.828;4.378;2023-08-24T02:13:26;12.33;;;5.90;;
19221;SDS011;9745;50.828;4.378;2023-08-24T02:16:02;9.90;;;5.13;;
19221;SDS011;9745;50.828;4.378;2023-08-24T02:18:29;10.53;;;6.13;;
19221;SDS011;9745;50.828;4.378;2023-08-24T02:20:55;13.00;;;6.00;;
19221;SDS011;9745;50.828;4.378;2023-08-24T02:23:21;10.93;;;6.47;;
19221;SDS011;9745;50.828;4.378;2023-08-24T02:25:47;11.40;;;6.00;;
19221;SDS011;9745;50.828;4.378;2023-08-24T02:28:13;15.17;;;6.37;;
19221;SDS011;9745;50.828;4.378;2023-08-24T02:30:39;10.47;;;6.40;;
19221;SDS011;9745;50.828;4.378;2023-08-24T02:33:05;9.37;;;5.70;;
19221;SDS011;9745;50.828;4.378;2023-08-24T02:35:31;9.63;;;5.73;;
19221;SDS011;9745;50.828;4.378;2023-08-24T02:37:57;11.17;;;6.70;;
19221;SDS011;9745;50.828;4.378;2023-08-24T02:40:23;11.67;;;6.00;;
19221;SDS011;9745;50.828;4.378;2023-08-24T02:42:49;10.10;;;5.60;;
19221;SDS011;9745;50.828;4.378;2023-08-24T02:45:15;8.93;;;6.03;;
19221;SDS011;9745;50.828;4.378;2023-08-24T02:47:41;8.93;;;5.73;;
19221;SDS011;9745;50.828;4.378;2023-08-24T02:50:07;11.40;;;6.50;;
19221;SDS011;9745;50.828;4.378;2023-08-24T02:52:33;8.83;;;6.10;;
19221;SDS011;9745;50.828;4.378;2023-08-24T02:54:59;10.97;;;6.20;;
19221;SDS011;9745;50.828;4.378;2023-08-24T02:57:26;10.53;;;6.47;;
19221;SDS011;9745;50.828;4.378;2023-08-24T02:59:52;9.37;;;6.77;;
19221;SDS011;9745;50.828;4.378;2023-08-24T03:02:18;11.70;;;6.87;;
19221;SDS011;9745;50.828;4.378;2023-08-24T03:04:44;12.07;;;6.00;;
19221;SDS011;9745;50.828;4.378;2023-08-24T03:07:10;13.27;;;6.77;;
19221;SDS011;9745;50.828;4.378;2023-08-24T03:09:36;11.53;;;6.73;;
19221;SDS011;9745;50.828;4.378;2023-08-24T03:12:02;10.10;;;6.10;;
19221;SDS011;9745;50.828;4.378;2023-08-24T03:14:28;11.90;;;6.00;;
19221;SDS011;9745;50.828;4.378;2023-08-24T03:16:55;8.73;;;5.87;;
19221;SDS011;9745;50.828;4.378;2023-08-24T03:19:21;11.83;;;5.33;;
19221;SDS011;9745;50.828;4.378;2023-08-24T03:21:47;9.70;;;5.77;;
19221;SDS011;9745;50.828;4.378;2023-08-24T03:24:13;10.47;;;6.17;;
19221;SDS011;9745;50.828;4.378;2023-08-24T03:26:39;9.67;;;6.10;;
19221;SDS011;9745;50.828;4.378;2023-08-24T03:29:05;8.17;;;6.17;;
19221;SDS011;9745;50.828;4.378;2023-08-24T03:31:31;9.20;;;5.10;;
19221;SDS011;9745;50.828;4.378;2023-08-24T03:33:57;12.20;;;6.13;;
19221;SDS011;9745;50.828;4.378;2023-08-24T03:36:22;9.00;;;5.53;;
19221;SDS011;9745;50.828;4.378;2023-08-24T03:38:48;9.10;;;5.73;;
19221;SDS011;9745;50.828;4.378;2023-08-24T03:41:14;9.07;;;5.73;;
19221;SDS011;9745;50.828;4.378;2023-08-24T03:43:40;7.47;;;5.60;;
19221;SDS011;9745;50.828;4.378;2023-08-24T03:46:06;9.10;;;5.63;;
19221;SDS011;9745;50.828;4.378;2023-08-24T03:48:33;11.17;;;5.83;;
19221;SDS011;9745;50.828;4.378;2023-08-24T03:50:59;9.30;;;5.80;;
19221;SDS011;9745;50.828;4.378;2023-08-24T03:53:25;12.53;;;5.70;;
19221;SDS011;9745;50.828;4.378;2023-08-24T03:55:51;9.30;;;5.17;;
19221;SDS011;9745;50.828;4.378;2023-08-24T03:58:18;8.90;;;5.50;;
19221;SDS011;9745;50.828;4.378;2023-08-24T04:00:44;12.07;;;5.77;;
19221;SDS011;9745;50.828;4.378;2023-08-24T04:03:10;11.50;;;5.60;;
19221;SDS011;9745;50.828;4.378;2023-08-24T04:05:36;8.67;;;5.20;;
19221;SDS011;9745;50.828;4.378;2023-08-24T04:08:02;9.43;;;5.60;;
19221;SDS011;9745;50.828;4.378;2023-08-24T04:10:29;6.20;;;5.20;;
19221;SDS011;9745;50.828;4.378;2023-08-24T04:12:55;10.30;;;4.97;;
19221;SDS011;9745;50.828;4.378;2023-08-24T04:15:21;9.57;;;5.20;;
19221;SDS011;9745;50.828;4.378;2023-08-24T04:17:48;9.03;;;5.60;;
19221;SDS011;9745;50.828;4.378;2023-08-24T04:20:14;6.73;;;5.27;;
19221;SDS011;9745;50.828;4.378;2023-08-24T04:22:40;10.67;;;5.93;;
19221;SDS011;9745;50.828;4.378;2023-08-24T04:25:07;7.80;;;5.93;;
19221;SDS011;9745;50.828;4.378;2023-08-24T04:27:33;9.23;;;5.10;;
19221;SDS011;9745;50.828;4.378;2023-08-24T04:29:59;10.80;;;5.93;;
19221;SDS011;9745;50.828;4.378;2023-08-24T04:32:25;9.50;;;5.37;;
19221;SDS011;9745;50.828;4.378;2023-08-24T04:34:51;7.67;;;5.30;;
19221;SDS011;9745;50.828;4.378;2023-08-24T04:37:17;9.47;;;5.90;;
19221;SDS011;9745;50.828;4.378;2023-08-24T04:39:43;10.37;;;5.53;;
19221;SDS011;9745;50.828;4.378;2023-08-24T04:42:09;9.07;;;5.80;;
19221;SDS011;9745;50.828;4.378;2023-08-24T04:44:35;8.53;;;5.47;;
19221;SDS011;9745;50.828;4.378;2023-08-24T04:47:01;7.80;;;5.20;;
19221;SDS011;9745;50.828;4.378;2023-08-24T04:49:29;9.03;;;5.23;;
19221;SDS011;9745;50.828;4.378;2023-08-24T04:51:55;9.37;;;5.33;;
19221;SDS011;9745;50.828;4.378;2023-08-24T04:54:21;8.70;;;5.60;;
19221;SDS011;9745;50.828;4.378;2023-08-24T04:56:47;10.93;;;4.97;;
19221;SDS011;9745;50.828;4.378;2023-08-24T04:59:14;10.53;;;5.63;;
19221;SDS011;9745;50.828;4.378;2023-08-24T05:01:40;7.30;;;5.60;;
19221;SDS011;9745;50.828;4.378;2023-08-24T05:04:06;9.83;;;5.67;;
19221;SDS011;9745;50.828;4.378;2023-08-24T05:06:32;8.33;;;6.10;;
19221;SDS011;9745;50.828;4.378;2023-08-24T05:08:59;8.23;;;5.40;;
19221;SDS011;9745;50.828;4.378;2023-08-24T05:11:26;7.53;;;5.20;;
19221;SDS011;9745;50.828;4.378;2023-08-24T05:13:54;10.67;;;5.27;;
19221;SDS011;9745;50.828;4.378;2023-08-24T05:16:21;8.00;;;4.83;;
19221;SDS011;9745;50.828;4.378;2023-08-24T05:18:47;9.10;;;6.43;;
19221;SDS011;9745;50.828;4.378;2023-08-24T05:21:13;6.47;;;5.33;;
19221;SDS011;9745;50.828;4.378;2023-08-24T05:23:39;7.43;;;5.37;;
19221;SDS011;9745;50.828;4.378;2023-08-24T05:26:05;7.30;;;5.00;;
19221;SDS011;9745;50.828;4.378;2023-08-24T05:28:31;6.40;;;4.40;;
19221;SDS011;9745;50.828;4.378;2023-08-24T05:30:57;6.43;;;4.47;;
19221;SDS011;9745;50.828;4.378;2023-08-24T05:33:24;9.63;;;5.33;;
19221;SDS011;9745;50.828;4.378;2023-08-24T05:35:50;5.93;;;4.97;;
19221;SDS011;9745;50.828;4.378;2023-08-24T05:38:17;6.90;;;4.83;;
19221;SDS011;9745;50.828;4.378;2023-08-24T05:40:43;10.73;;;5.13;;
19221;SDS011;9745;50.828;4.378;2023-08-24T05:43:09;6.40;;;4.13;;
19221;SDS011;9745;50.828;4.378;2023-08-24T05:45:36;12.03;;;5.27;;
19221;SDS011;9745;50.828;4.378;2023-08-24T05:48:04;9.83;;;4.43;;
19221;SDS011;9745;50.828;4.378;2023-08-24T05:50:30;10.13;;;4.90;;
19221;SDS011;9745;50.828;4.378;2023-08-24T05:52:56;7.73;;;3.90;;
19221;SDS011;9745;50.828;4.378;2023-08-24T05:55:22;8.20;;;4.10;;
19221;SDS011;9745;50.828;4.378;2023-08-24T05:57:49;5.93;;;3.80;;
19221;SDS011;9745;50.828;4.378;2023-08-24T06:00:15;7.40;;;3.60;;
19221;SDS011;9745;50.828;4.378;2023-08-24T06:02:41;8.63;;;3.80;;
19221;SDS011;9745;50.828;4.378;2023-08-24T06:05:07;6.03;;;3.60;;
19221;SDS011;9745;50.828;4.378;2023-08-24T06:07:34;7.03;;;3.80;;
19221;SDS011;9745;50.828;4.378;2023-08-24T06:10:01;5.37;;;4.00;;
19221;SDS011;9745;50.828;4.378;2023-08-24T06:12:27;5.70;;;3.80;;
19221;SDS011;9745;50.828;4.378;2023-08-24T06:14:53;6.57;;;3.80;;
19221;SDS011;9745;50.828;4.378;2023-08-24T06:17:20;6.90;;;4.43;;
19221;SDS011;9745;50.828;4.378;2023-08-24T06:19:46;5.97;;;3.23;;
19221;SDS011;9745;50.828;4.378;2023-08-24T06:22:12;6.73;;;3.67;;
19221;SDS011;9745;50.828;4.378;2023-08-24T06:24:38;7.27;;;4.23;;
19221;SDS011;9745;50.828;4.378;2023-08-24T06:27:04;9.10;;;4.10;;
19221;SDS011;9745;50.828;4.378;2023-08-24T06:29:30;7.53;;;3.70;;
19221;SDS011;9745;50.828;4.378;2023-08-24T06:31:57;6.87;;;3.40;;
19221;SDS011;9745;50.828;4.378;2023-08-24T06:34:23;5.80;;;3.30;;
19221;SDS011;9745;50.828;4.378;2023-08-24T06:36:50;8.23;;;3.60;;
19221;SDS011;9745;50.828;4.378;2023-08-24T06:39:16;8.17;;;4.03;;
19221;SDS011;9745;50.828;4.378;2023-08-24T06:41:42;5.97;;;3.43;;
19221;SDS011;9745;50.828;4.378;2023-08-24T06:44:08;8.00;;;3.60;;
19221;SDS011;9745;50.828;4.378;2023-08-24T06:46:34;9.10;;;4.03;;
19221;SDS011;9745;50.828;4.378;2023-08-24T06:49:00;5.80;;;2.87;;
19221;SDS011;9745;50.828;4.378;2023-08-24T06:51:26;7.20;;;3.70;;
19221;SDS011;9745;50.828;4.378;2023-08-24T06:53:53;10.60;;;3.60;;
19221;SDS011;9745;50.828;4.378;2023-08-24T06:56:20;6.13;;;3.30;;
19221;SDS011;9745;50.828;4.378;2023-08-24T06:58:47;4.80;;;3.20;;
19221;SDS011;9745;50.828;4.378;2023-08-24T07:01:13;7.80;;;3.43;;
19221;SDS011;9745;50.828;4.378;2023-08-24T07:03:39;6.70;;;3.53;;
19221;SDS011;9745;50.828;4.378;2023-08-24T07:06:05;6.53;;;3.47;;
19221;SDS011;9745;50.828;4.378;2023-08-24T07:08:37;5.77;;;3.47;;
19221;SDS011;9745;50.828;4.378;2023-08-24T07:11:03;6.57;;;3.00;;
19221;SDS011;9745;50.828;4.378;2023-08-24T07:13:29;6.70;;;3.13;;
19221;SDS011;9745;50.828;4.378;2023-08-24T07:15:55;5.57;;;2.90;;
19221;SDS011;9745;50.828;4.378;2023-08-24T07:18:21;6.97;;;3.10;;
19221;SDS011;9745;50.828;4.378;2023-08-24T07:20:47;5.53;;;3.10;;
19221;SDS011;9745;50.828;4.378;2023-08-24T07:23:14;8.97;;;3.50;;
19221;SDS011;9745;50.828;4.378;2023-08-24T07:25:40;6.33;;;2.80;;
19221;SDS011;9745;50.828;4.378;2023-08-24T07:28:06;5.10;;;2.83;;
19221;SDS011;9745;50.828;4.378;2023-08-24T07:30:33;8.97;;;3.10;;
19221;SDS011;9745;50.828;4.378;2023-08-24T07:33:00;6.60;;;3.17;;
19221;SDS011;9745;50.828;4.378;2023-08-24T07:35:26;4.63;;;2.67;;
19221;SDS011;9745;50.828;4.378;2023-08-24T07:37:52;5.07;;;2.77;;
19221;SDS011;9745;50.828;4.378;2023-08-24T07:40:19;4.10;;;2.63;;
19221;SDS011;9745;50.828;4.378;2023-08-24T07:42:49;5.00;;;2.83;;
19221;SDS011;9745;50.828;4.378;2023-08-24T07:45:16;6.47;;;2.90;;
19221;SDS011;9745;50.828;4.378;2023-08-24T07:47:42;11.40;;;2.90;;
19221;SDS011;9745;50.828;4.378;2023-08-24T07:50:09;7.17;;;2.90;;
19221;SDS011;9745;50.828;4.378;2023-08-24T07:52:37;4.57;;;2.73;;
19221;SDS011;9745;50.828;4.378;2023-08-24T07:55:04;8.33;;;5.73;;
19221;SDS011;9745;50.828;4.378;2023-08-24T07:57:33;7.50;;;2.90;;
19221;SDS011;9745;50.828;4.378;2023-08-24T07:59:59;6.50;;;3.90;;
19221;SDS011;9745;50.828;4.378;2023-08-24T08:02:25;9.03;;;4.03;;
19221;SDS011;9745;50.828;4.378;2023-08-24T08:04:51;7.43;;;2.93;;
19221;SDS011;9745;50.828;4.378;2023-08-24T08:07:18;6.37;;;4.20;;
19221;SDS011;9745;50.828;4.378;2023-08-24T08:09:43;8.30;;;3.50;;
19221;SDS011;9745;50.828;4.378;2023-08-24T08:12:09;4.10;;;2.83;;
19221;SDS011;9745;50.828;4.378;2023-08-24T08:14:36;6.40;;;3.07;;
19221;SDS011;9745;50.828;4.378;2023-08-24T08:17:02;3.93;;;2.80;;
19221;SDS011;9745;50.828;4.378;2023-08-24T08:19:28;4.67;;;2.87;;
19221;SDS011;9745;50.828;4.378;2023-08-24T08:21:54;8.07;;;3.20;;
19221;SDS011;9745;50.828;4.378;2023-08-24T08:24:20;7.20;;;2.87;;
19221;SDS011;9745;50.828;4.378;2023-08-24T08:26:46;8.47;;;3.47;;
19221;SDS011;9745;50.828;4.378;2023-08-24T08:29:12;5.40;;;2.83;;
19221;SDS011;9745;50.828;4.378;2023-08-24T08:31:40;7.80;;;3.20;;
19221;SDS011;9745;50.828;4.378;2023-08-24T08:34:06;7.33;;;2.93;;
19221;SDS011;9745;50.828;4.378;2023-08-24T08:36:32;4.17;;;2.80;;
19221;SDS011;9745;50.828;4.378;2023-08-24T08:38:58;8.87;;;3.60;;
19221;SDS011;9745;50.828;4.378;2023-08-24T08:41:25;6.07;;;3.00;;
19221;SDS011;9745;50.828;4.378;2023-08-24T08:43:53;6.37;;;3.30;;
19221;SDS011;9745;50.828;4.378;2023-08-24T08:46:19;5.10;;;2.93;;
19221;SDS011;9745;50.828;4.378;2023-08-24T08:48:45;6.53;;;2.90;;
19221;SDS011;9745;50.828;4.378;2023-08-24T08:51:13;5.50;;;3.27;;
19221;SDS011;9745;50.828;4.378;2023-08-24T08:53:39;6.17;;;2.90;;
19221;SDS011;9745;50.828;4.378;2023-08-24T08:56:05;5.27;;;3.20;;
19221;SDS011;9745;50.828;4.378;2023-08-24T08:58:32;11.90;;;3.70;;
19221;SDS011;9745;50.828;4.378;2023-08-24T09:01:01;9.30;;;3.23;;
19221;SDS011;9745;50.828;4.378;2023-08-24T09:03:29;11.33;;;3.60;;
19221;SDS011;9745;50.828;4.378;2023-08-24T09:05:56;15.63;;;4.70;;
19221;SDS011;9745;50.828;4.378;2023-08-24T09:08:22;18.63;;;4.53;;
19221;SDS011;9745;50.828;4.378;2023-08-24T09:10:49;8.80;;;3.20;;
19221;SDS011;9745;50.828;4.378;2023-08-24T09:13:15;10.97;;;3.47;;
19221;SDS011;9745;50.828;4.378;2023-08-24T09:15:41;8.33;;;3.60;;
19221;SDS011;9745;50.828;4.378;2023-08-24T09:18:08;9.27;;;3.77;;
19221;SDS011;9745;50.828;4.378;2023-08-24T09:20:34;8.60;;;3.47;;
19221;SDS011;9745;50.828;4.378;2023-08-24T09:23:00;9.10;;;4.60;;
19221;SDS011;9745;50.828;4.378;2023-08-24T09:25:26;7.50;;;3.17;;
19221;SDS011;9745;50.828;4.378;2023-08-24T09:27:59;7.43;;;3.23;;
19221;SDS011;9745;50.828;4.378;2023-08-24T09:30:29;5.93;;;3.50;;
19221;SDS011;9745;50.828;4.378;2023-08-24T09:32:56;7.97;;;3.73;;
19221;SDS011;9745;50.828;4.378;2023-08-24T09:35:26;8.77;;;3.83;;
19221;SDS011;9745;50.828;4.378;2023-08-24T09:37:52;8.30;;;4.47;;
19221;SDS011;9745;50.828;4.378;2023-08-24T09:40:23;12.00;;;4.53;;
19221;SDS011;9745;50.828;4.378;2023-08-24T09:42:49;8.17;;;4.20;;
19221;SDS011;9745;50.828;4.378;2023-08-24T09:45:15;7.33;;;4.73;;
19221;SDS011;9745;50.828;4.378;2023-08-24T09:48:00;12.80;;;5.97;;
19221;SDS011;9745;50.828;4.378;2023-08-24T09:50:26;13.80;;;6.07;;
19221;SDS011;9745;50.828;4.378;2023-08-24T09:52:52;9.33;;;6.07;;
19221;SDS011;9745;50.828;4.378;2023-08-24T09:55:20;10.90;;;6.17;;
19221;SDS011;9745;50.828;4.378;2023-08-24T09:57:48;13.60;;;7.13;;
19221;SDS011;9745;50.828;4.378;2023-08-24T10:00:16;16.57;;;7.07;;
19221;SDS011;9745;50.828;4.378;2023-08-24T10:02:51;14.73;;;8.53;;
19221;SDS011;9745;50.828;4.378;2023-08-24T10:05:21;15.83;;;7.57;;
19221;SDS011;9745;50.828;4.378;2023-08-24T10:07:57;11.30;;;7.03;;
19221;SDS011;9745;50.828;4.378;2023-08-24T10:10:25;14.33;;;7.33;;
19221;SDS011;9745;50.828;4.378;2023-08-24T10:12:53;15.93;;;8.20;;
19221;SDS011;9745;50.828;4.378;2023-08-24T10:15:21;13.37;;;7.47;;
19221;SDS011;9745;50.828;4.378;2023-08-24T10:17:48;14.13;;;8.33;;
19221;SDS011;9745;50.828;4.378;2023-08-24T10:20:15;12.30;;;7.57;;
19221;SDS011;9745;50.828;4.378;2023-08-24T10:22:43;13.87;;;7.07;;
19221;SDS011;9745;50.828;4.378;2023-08-24T10:25:09;17.47;;;7.53;;
19221;SDS011;9745;50.828;4.378;2023-08-24T10:27:37;14.60;;;7.73;;
19221;SDS011;9745;50.828;4.378;2023-08-24T10:30:12;13.10;;;6.90;;
19221;SDS011;9745;50.828;4.378;2023-08-24T10:32:39;14.97;;;8.17;;
19221;SDS011;9745;50.828;4.378;2023-08-24T10:35:06;10.90;;;7.73;;
19221;SDS011;9745;50.828;4.378;2023-08-24T10:37:32;15.70;;;7.63;;
19221;SDS011;9745;50.828;4.378;2023-08-24T10:40:01;11.27;;;6.97;;
19221;SDS011;9745;50.828;4.378;2023-08-24T10:42:42;13.63;;;7.23;;
19221;SDS011;9745;50.828;4.378;2023-08-24T10:45:09;12.50;;;7.17;;
19221;SDS011;9745;50.828;4.378;2023-08-24T10:47:43;10.40;;;6.80;;
19221;SDS011;9745;50.828;4.378;2023-08-24T10:50:10;13.80;;;6.90;;
19221;SDS011;9745;50.828;4.378;2023-08-24T10:52:42;9.13;;;5.70;;
19221;SDS011;9745;50.828;4.378;2023-08-24T10:55:21;10.30;;;5.90;;
19221;SDS011;9745;50.828;4.378;2023-08-24T10:57:57;9.23;;;6.10;;
19221;SDS011;9745;50.828;4.378;2023-08-24T11:00:28;11.77;;;7.20;;
19221;SDS011;9745;50.828;4.378;2023-08-24T11:02:55;9.93;;;6.00;;
19221;SDS011;9745;50.828;4.378;2023-08-24T11:05:22;7.93;;;5.60;;
19221;SDS011;9745;50.828;4.378;2023-08-24T11:08:01;12.13;;;5.93;;
19221;SDS011;9745;50.828;4.378;2023-08-24T11:10:46;11.13;;;5.90;;
19221;SDS011;9745;50.828;4.378;2023-08-24T11:13:16;11.33;;;5.97;;
19221;SDS011;9745;50.828;4.378;2023-08-24T11:15:45;8.53;;;5.50;;
19221;SDS011;9745;50.828;4.378;2023-08-24T11:18:28;11.27;;;6.33;;
19221;SDS011;9745;50.828;4.378;2023-08-24T11:20:55;10.57;;;6.40;;
19221;SDS011;9745;50.828;4.378;2023-08-24T11:23:22;12.00;;;6.03;;
19221;SDS011;9745;50.828;4.378;2023-08-24T11:25:49;10.63;;;5.43;;
19221;SDS011;9745;50.828;4.378;2023-08-24T11:28:19;10.90;;;7.03;;
19221;SDS011;9745;50.828;4.378;2023-08-24T11:30:45;12.47;;;9.60;;
19221;SDS011;9745;50.828;4.378;2023-08-24T11:33:12;13.37;;;8.37;;
19221;SDS011;9745;50.828;4.378;2023-08-24T11:35:40;11.27;;;5.20;;
19221;SDS011;9745;50.828;4.378;2023-08-24T11:38:06;11.00;;;5.83;;
19221;SDS011;9745;50.828;4.378;2023-08-24T11:40:32;14.40;;;8.30;;
19221;SDS011;9745;50.828;4.378;2023-08-24T11:42:58;11.60;;;6.63;;
19221;SDS011;9745;50.828;4.378;2023-08-24T11:45:29;7.43;;;5.00;;
19221;SDS011;9745;50.828;4.378;2023-08-24T11:47:56;9.27;;;4.90;;
19221;SDS011;9745;50.828;4.378;2023-08-24T11:50:24;7.47;;;4.73;;
19221;SDS011;9745;50.828;4.378;2023-08-24T11:52:50;10.57;;;4.23;;
19221;SDS011;9745;50.828;4.378;2023-08-24T11:55:18;6.73;;;4.90;;
19221;SDS011;9745;50.828;4.378;2023-08-24T11:57:44;7.17;;;4.83;;
19221;SDS011;9745;50.828;4.378;2023-08-24T12:00:10;7.10;;;4.60;;
19221;SDS011;9745;50.828;4.378;2023-08-24T12:02:38;7.70;;;4.70;;
19221;SDS011;9745;50.828;4.378;2023-08-24T12:05:05;9.87;;;4.80;;
19221;SDS011;9745;50.828;4.378;2023-08-24T12:07:31;8.07;;;5.17;;
19221;SDS011;9745;50.828;4.378;2023-08-24T12:10:01;9.20;;;5.30;;
19221;SDS011;9745;50.828;4.378;2023-08-24T12:12:27;7.13;;;4.90;;
19221;SDS011;9745;50.828;4.378;2023-08-24T12:14:54;7.80;;;4.60;;
19221;SDS011;9745;50.828;4.378;2023-08-24T12:17:22;8.47;;;5.00;;
19221;SDS011;9745;50.828;4.378;2023-08-24T12:19:59;8.67;;;5.20;;
19221;SDS011;9745;50.828;4.378;2023-08-24T12:22:26;9.43;;;5.47;;
19221;SDS011;9745;50.828;4.378;2023-08-24T12:24:53;8.27;;;5.30;;
19221;SDS011;9745;50.828;4.378;2023-08-24T12:27:23;9.30;;;6.37;;
19221;SDS011;9745;50.828;4.378;2023-08-24T12:29:49;8.07;;;5.50;;
19221;SDS011;9745;50.828;4.378;2023-08-24T12:32:16;7.43;;;6.30;;
19221;SDS011;9745;50.828;4.378;2023-08-24T12:34:45;7.67;;;5.57;;
19221;SDS011;9745;50.828;4.378;2023-08-24T12:37:11;10.80;;;6.47;;
19221;SDS011;9745;50.828;4.378;2023-08-24T12:39:38;7.87;;;5.83;;
19221;SDS011;9745;50.828;4.378;2023-08-24T12:42:05;8.73;;;6.03;;
19221;SDS011;9745;50.828;4.378;2023-08-24T12:44:31;10.67;;;5.90;;
19221;SDS011;9745;50.828;4.378;2023-08-24T12:46:58;9.67;;;4.77;;
19221;SDS011;9745;50.828;4.378;2023-08-24T12:49:24;6.43;;;4.33;;
19221;SDS011;9745;50.828;4.378;2023-08-24T12:51:50;7.13;;;4.47;;
19221;SDS011;9745;50.828;4.378;2023-08-24T12:54:16;9.37;;;4.90;;
19221;SDS011;9745;50.828;4.378;2023-08-24T12:56:42;5.87;;;4.00;;
19221;SDS011;9745;50.828;4.378;2023-08-24T12:59:08;5.13;;;3.60;;
19221;SDS011;9745;50.828;4.378;2023-08-24T13:01:34;7.27;;;3.83;;
19221;SDS011;9745;50.828;4.378;2023-08-24T13:04:00;6.90;;;4.33;;
19221;SDS011;9745;50.828;4.378;2023-08-24T13:06:26;7.13;;;3.67;;
19221;SDS011;9745;50.828;4.378;2023-08-24T13:08:52;8.70;;;3.67;;
19221;SDS011;9745;50.828;4.378;2023-08-24T13:11:19;7.23;;;3.70;;
19221;SDS011;9745;50.828;4.378;2023-08-24T13:13:45;4.83;;;2.80;;
19221;SDS011;9745;50.828;4.378;2023-08-24T13:16:11;5.33;;;3.00;;
19221;SDS011;9745;50.828;4.378;2023-08-24T13:18:37;7.70;;;3.80;;
19221;SDS011;9745;50.828;4.378;2023-08-24T13:21:03;7.00;;;3.30;;
19221;SDS011;9745;50.828;4.378;2023-08-24T13:23:29;10.70;;;3.63;;
19221;SDS011;9745;50.828;4.378;2023-08-24T13:25:57;6.13;;;3.37;;
19221;SDS011;9745;50.828;4.378;2023-08-24T13:28:23;6.07;;;4.00;;
19221;SDS011;9745;50.828;4.378;2023-08-24T13:30:49;5.90;;;3.97;;
19221;SDS011;9745;50.828;4.378;2023-08-24T13:33:15;10.00;;;3.80;;
19221;SDS011;9745;50.828;4.378;2023-08-24T13:35:41;8.20;;;3.70;;
19221;SDS011;9745;50.828;4.378;2023-08-24T13:38:07;7.17;;;3.47;;
19221;SDS011;9745;50.828;4.378;2023-08-24T13:40:33;9.50;;;4.03;;
19221;SDS011;9745;50.828;4.378;2023-08-24T13:42:59;7.63;;;3.10;;
19221;SDS011;9745;50.828;4.378;2023-08-24T13:45:25;6.77;;;3.20;;
19221;SDS011;9745;50.828;4.378;2023-08-24T13:47:51;7.90;;;3.30;;
19221;SDS011;9745;50.828;4.378;2023-08-24T13:50:17;8.23;;;3.40;;
19221;SDS011;9745;50.828;4.378;2023-08-24T13:52:43;4.90;;;2.53;;
19221;SDS011;9745;50.828;4.378;2023-08-24T13:55:09;6.43;;;2.77;;
19221;SDS011;9745;50.828;4.378;2023-08-24T13:57:36;13.37;;;4.87;;
19221;SDS011;9745;50.828;4.378;2023-08-24T14:00:02;6.23;;;3.00;;
19221;SDS011;9745;50.828;4.378;2023-08-24T14:02:29;6.23;;;2.30;;
19221;SDS011;9745;50.828;4.378;2023-08-24T14:04:55;6.70;;;2.60;;
19221;SDS011;9745;50.828;4.378;2023-08-24T14:07:22;4.70;;;2.53;;
19221;SDS011;9745;50.828;4.378;2023-08-24T14:09:48;5.87;;;2.60;;
19221;SDS011;9745;50.828;4.378;2023-08-24T14:12:14;5.00;;;2.83;;
19221;SDS011;9745;50.828;4.378;2023-08-24T14:14:40;3.57;;;2.30;;
19221;SDS011;9745;50.828;4.378;2023-08-24T14:17:06;5.10;;;2.20;;
19221;SDS011;9745;50.828;4.378;2023-08-24T14:19:32;5.80;;;2.30;;
19221;SDS011;9745;50.828;4.378;2023-08-24T14:21:58;4.40;;;2.10;;
19221;SDS011;9745;50.828;4.378;2023-08-24T14:24:24;5.10;;;2.23;;
19221;SDS011;9745;50.828;4.378;2023-08-24T14:26:50;4.30;;;2.03;;
19221;SDS011;9745;50.828;4.378;2023-08-24T14:29:16;5.07;;;2.00;;
19221;SDS011;9745;50.828;4.378;2023-08-24T14:31:43;5.87;;;2.30;;
19221;SDS011;9745;50.828;4.378;2023-08-24T14:34:09;5.07;;;2.27;;
19221;SDS011;9745;50.828;4.378;2023-08-24T14:36:35;4.20;;;2.10;;
19221;SDS011;9745;50.828;4.378;2023-08-24T14:39:01;5.27;;;2.10;;
19221;SDS011;9745;50.828;4.378;2023-08-24T14:41:27;3.33;;;1.63;;
19221;SDS011;9745;50.828;4.378;2023-08-24T14:43:53;5.23;;;1.87;;
19221;SDS011;9745;50.828;4.378;2023-08-24T14:46:19;6.53;;;1.97;;
19221;SDS011;9745;50.828;4.378;2023-08-24T14:48:45;5.07;;;2.00;;
19221;SDS011;9745;50.828;4.378;2023-08-24T14:51:11;5.60;;;1.93;;
19221;SDS011;9745;50.828;4.378;2023-08-24T14:53:38;4.97;;;2.20;;
19221;SDS011;9745;50.828;4.378;2023-08-24T14:56:03;5.67;;;1.80;;
19221;SDS011;9745;50.828;4.378;2023-08-24T14:58:30;12.20;;;1.73;;